Time;durP1;ratioP1;P1;durP2;ratioP2;P2;SDS_P1;SDS_P2;PMS_P1;PMS_P2;Temp;Humidity;BMP_temperature;BMP_pressure;BME280_temperature;BME280_humidity;BME280_pressure;Samples;Min_cycle;Max_cycle;Signal;HPM_P1;HPM_P2
2021/10/15 00:00:29;;;;;;;6.67;3.60;;;11.70;1.00;;;;;;5012167;28;20272;-61
2021/10/15 00:02:58;;;;;;;7.20;3.60;;;11.70;1.00;;;;;;5011889;28;20257;-62
2021/10/15 00:05:24;;;;;;;6.60;3.40;;;11.60;1.00;;;;;;5011589;28;20683;-61
2021/10/15 00:07:51;;;;;;;7.67;3.40;;;11.60;1.00;;;;;;5012313;28;20205;-61
2021/10/15 00:10:18;;;;;;;7.10;3.53;;;11.70;1.00;;;;;;5012031;28;20288;-62
2021/10/15 00:12:46;;;;;;;7.70;3.73;;;11.70;1.00;;;;;;5012221;28;20622;-62
2021/10/15 00:15:12;;;;;;;4.93;3.40;;;11.70;1.00;;;;;;5011604;28;20273;-62
2021/10/15 00:17:39;;;;;;;8.60;3.17;;;11.70;1.00;;;;;;5011908;28;20641;-61
2021/10/15 00:20:07;;;;;;;8.27;3.50;;;11.60;1.00;;;;;;5011714;28;20227;-61
2021/10/15 00:22:34;;;;;;;5.70;3.33;;;11.60;1.00;;;;;;5011883;28;20703;-61
2021/10/15 00:25:01;;;;;;;11.40;3.30;;;11.60;1.00;;;;;;5011760;28;20203;-61
2021/10/15 00:27:27;;;;;;;7.33;3.20;;;11.60;1.00;;;;;;5011914;28;20269;-61
2021/10/15 00:29:55;;;;;;;6.97;3.73;;;11.60;1.00;;;;;;5011664;28;20281;-61
2021/10/15 00:32:22;;;;;;;7.30;3.20;;;11.60;1.00;;;;;;5011674;28;20258;-61
2021/10/15 00:34:49;;;;;;;5.83;2.80;;;11.60;1.00;;;;;;5011499;28;20845;-61
2021/10/15 00:37:19;;;;;;;7.93;3.00;;;11.60;1.00;;;;;;5011382;28;20687;-61
2021/10/15 00:39:45;;;;;;;8.53;3.30;;;11.60;1.00;;;;;;5014441;28;20900;-61
2021/10/15 00:42:12;;;;;;;6.03;3.20;;;11.50;1.00;;;;;;5015479;28;20225;-61
2021/10/15 00:44:39;;;;;;;8.50;3.70;;;11.50;1.00;;;;;;5014977;28;20257;-61
2021/10/15 00:47:07;;;;;;;7.13;2.77;;;11.50;1.00;;;;;;5015793;28;20588;-61
2021/10/15 00:49:34;;;;;;;6.60;3.10;;;11.40;1.00;;;;;;5015498;28;20634;-61
2021/10/15 00:52:01;;;;;;;5.33;2.83;;;11.40;1.00;;;;;;5015558;28;20204;-61
2021/10/15 00:54:28;;;;;;;7.40;3.50;;;11.40;1.00;;;;;;5015351;28;20210;-61
2021/10/15 00:56:55;;;;;;;6.90;2.97;;;11.30;1.00;;;;;;5015177;28;20624;-61
2021/10/15 00:59:21;;;;;;;7.17;3.07;;;11.20;1.00;;;;;;5014922;28;20281;-61
2021/10/15 01:01:48;;;;;;;5.83;3.00;;;11.30;1.00;;;;;;5015088;28;20672;-61
2021/10/15 01:04:16;;;;;;;5.40;3.10;;;11.20;1.00;;;;;;5014999;28;20674;-62
2021/10/15 01:06:43;;;;;;;6.33;3.30;;;11.20;1.00;;;;;;5014907;28;20258;-62
2021/10/15 01:09:10;;;;;;;5.83;3.23;;;11.20;1.00;;;;;;5015035;28;20680;-61
2021/10/15 01:11:37;;;;;;;7.90;3.40;;;11.20;1.00;;;;;;5014900;28;20219;-61
2021/10/15 01:14:04;;;;;;;8.47;3.37;;;11.20;1.00;;;;;;5014895;28;20222;-61
2021/10/15 01:16:32;;;;;;;6.93;3.30;;;11.20;1.00;;;;;;5014631;28;20257;-61
2021/10/15 01:19:01;;;;;;;7.00;3.70;;;11.20;1.00;;;;;;5015233;28;20267;-61
2021/10/15 01:21:30;;;;;;;6.43;3.47;;;11.20;1.00;;;;;;5014805;28;20643;-62
2021/10/15 01:23:57;;;;;;;9.47;3.30;;;11.20;1.00;;;;;;5014804;28;20235;-61
2021/10/15 01:26:24;;;;;;;6.77;2.97;;;11.20;1.00;;;;;;5014326;28;20207;-62
2021/10/15 01:28:52;;;;;;;9.27;3.27;;;11.20;1.00;;;;;;5014687;28;20222;-62
2021/10/15 01:31:19;;;;;;;7.90;3.23;;;11.10;1.00;;;;;;5014703;28;20232;-62
2021/10/15 01:33:46;;;;;;;7.73;3.10;;;11.10;1.00;;;;;;5013948;28;20262;-60
2021/10/15 01:36:12;;;;;;;4.00;2.80;;;11.10;1.00;;;;;;5014429;28;20211;-61
2021/10/15 01:38:41;;;;;;;6.83;3.43;;;11.10;1.00;;;;;;5014415;28;20211;-61
2021/10/15 01:41:08;;;;;;;11.40;3.93;;;11.10;1.00;;;;;;5014705;28;20915;-62
2021/10/15 01:43:35;;;;;;;8.50;3.27;;;11.00;1.00;;;;;;5014378;28;20237;-62
2021/10/15 01:46:02;;;;;;;5.77;3.30;;;11.00;1.00;;;;;;5014256;28;20563;-61
2021/10/15 01:48:29;;;;;;;7.10;3.53;;;11.00;1.00;;;;;;5014295;28;20210;-61
2021/10/15 01:50:55;;;;;;;8.20;3.33;;;11.00;1.00;;;;;;5014014;28;20285;-62
2021/10/15 01:53:22;;;;;;;7.17;3.77;;;11.00;1.00;;;;;;5014188;28;20199;-62
2021/10/15 01:55:50;;;;;;;7.23;3.50;;;11.00;1.00;;;;;;5013767;28;20207;-62
2021/10/15 01:58:18;;;;;;;7.73;3.47;;;11.00;1.00;;;;;;5014044;28;20671;-61
2021/10/15 02:00:45;;;;;;;7.57;3.43;;;11.00;1.00;;;;;;5014091;28;20585;-62
2021/10/15 02:03:11;;;;;;;9.23;4.07;;;11.00;1.00;;;;;;5014124;28;20229;-61
2021/10/15 02:05:38;;;;;;;11.17;4.30;;;10.90;1.00;;;;;;5013602;28;20258;-62
2021/10/15 02:08:05;;;;;;;9.27;3.63;;;11.00;1.00;;;;;;5013993;28;20260;-61
2021/10/15 02:10:32;;;;;;;7.70;3.70;;;10.90;1.00;;;;;;5014075;28;20231;-62
2021/10/15 02:13:01;;;;;;;9.83;3.40;;;10.90;1.00;;;;;;5013942;28;20621;-62
2021/10/15 02:15:28;;;;;;;7.23;3.50;;;10.90;1.00;;;;;;5013575;28;20587;-62
2021/10/15 02:17:55;;;;;;;10.83;4.13;;;10.90;1.00;;;;;;5013733;28;20725;-61
2021/10/15 02:20:22;;;;;;;9.10;3.93;;;10.90;1.00;;;;;;5013677;28;20227;-62
2021/10/15 02:22:50;;;;;;;6.60;3.40;;;10.90;1.00;;;;;;5013902;28;20227;-60
2021/10/15 02:25:18;;;;;;;7.97;4.20;;;10.80;1.00;;;;;;5013540;28;20215;-61
2021/10/15 02:27:46;;;;;;;8.17;4.43;;;10.80;1.00;;;;;;5013640;28;20211;-61
2021/10/15 02:30:15;;;;;;;9.87;3.67;;;10.80;1.00;;;;;;5013558;28;20226;-61
2021/10/15 02:32:43;;;;;;;10.80;4.30;;;10.80;1.00;;;;;;5013526;28;20676;-62
2021/10/15 02:35:11;;;;;;;5.73;4.07;;;10.70;1.00;;;;;;5012890;28;20213;-61
2021/10/15 02:37:37;;;;;;;8.00;3.73;;;10.70;1.00;;;;;;5013635;28;20242;-61
2021/10/15 02:40:05;;;;;;;7.03;4.00;;;10.70;1.00;;;;;;5013258;28;20878;-62
2021/10/15 02:42:32;;;;;;;13.23;4.37;;;10.60;1.00;;;;;;5013242;28;20223;-61
2021/10/15 02:44:59;;;;;;;8.70;4.13;;;10.60;1.00;;;;;;5012893;28;20203;-61
2021/10/15 02:47:27;;;;;;;10.90;4.53;;;10.60;1.00;;;;;;5013177;28;20207;-61
2021/10/15 02:49:54;;;;;;;9.63;4.93;;;10.50;1.00;;;;;;5013204;28;20293;-61
2021/10/15 02:52:20;;;;;;;8.63;4.17;;;10.50;1.00;;;;;;5013430;28;20257;-61
2021/10/15 02:54:47;;;;;;;13.30;4.63;;;10.50;1.00;;;;;;5012966;28;20257;-61
2021/10/15 02:57:14;;;;;;;8.30;4.97;;;10.50;1.00;;;;;;5013050;28;20241;-61
2021/10/15 02:59:40;;;;;;;9.50;4.77;;;10.50;2.10;;;;;;5012983;28;20228;-61
2021/10/15 03:02:07;;;;;;;9.80;4.97;;;10.50;4.20;;;;;;5012157;28;20210;-62
2021/10/15 03:04:35;;;;;;;6.50;4.10;;;10.50;4.30;;;;;;5012942;28;20203;-61
2021/10/15 03:07:01;;;;;;;10.10;4.80;;;10.50;4.40;;;;;;5013095;28;20609;-61
2021/10/15 03:09:28;;;;;;;9.73;4.90;;;10.50;4.40;;;;;;5012786;28;20749;-62
2021/10/15 03:11:55;;;;;;;10.07;5.10;;;10.40;35.10;;;;;;5012787;28;20277;-61
2021/10/15 03:14:22;;;;;;;9.80;4.97;;;10.40;35.60;;;;;;5012723;28;20202;-62
2021/10/15 03:16:49;;;;;;;9.10;5.20;;;10.40;62.00;;;;;;5012357;28;20357;-61
2021/10/15 03:19:16;;;;;;;9.00;5.23;;;10.40;50.40;;;;;;5012704;28;20628;-61
2021/10/15 03:21:44;;;;;;;9.67;5.27;;;10.40;67.60;;;;;;5012511;28;20676;-62
2021/10/15 03:24:11;;;;;;;11.63;5.27;;;10.40;81.70;;;;;;5012437;28;20227;-62
2021/10/15 03:26:37;;;;;;;10.60;5.40;;;10.40;99.90;;;;;;5012342;28;20211;-62
2021/10/15 03:29:04;;;;;;;8.93;5.50;;;10.40;99.90;;;;;;5012806;28;20207;-61
2021/10/15 03:31:31;;;;;;;9.77;5.40;;;10.40;96.20;;;;;;5012351;28;20231;-62
2021/10/15 03:33:58;;;;;;;9.70;5.77;;;10.40;99.90;;;;;;5012680;28;20218;-62
2021/10/15 03:36:24;;;;;;;8.63;5.40;;;10.40;98.00;;;;;;5012161;28;20269;-61
2021/10/15 03:38:52;;;;;;;9.03;5.20;;;10.40;73.70;;;;;;5012551;28;20210;-61
2021/10/15 03:41:19;;;;;;;11.23;5.60;;;10.40;82.80;;;;;;5012280;28;20227;-62
2021/10/15 03:43:46;;;;;;;14.13;6.13;;;10.50;94.20;;;;;;5012200;28;20250;-61
2021/10/15 03:46:13;;;;;;;7.90;4.77;;;10.50;87.50;;;;;;5011734;28;20268;-61
2021/10/15 03:48:39;;;;;;;9.57;5.10;;;10.50;77.10;;;;;;5012520;28;20265;-62
2021/10/15 03:51:06;;;;;;;8.07;4.93;;;10.50;48.30;;;;;;5011768;28;20270;-62
2021/10/15 03:53:33;;;;;;;7.97;5.50;;;10.50;63.20;;;;;;5012101;28;20199;-61
2021/10/15 03:56:01;;;;;;;11.50;7.40;;;10.50;79.20;;;;;;5011678;28;20690;-61
2021/10/15 03:58:27;;;;;;;11.50;5.77;;;10.50;62.10;;;;;;5011852;28;20207;-62
2021/10/15 04:00:54;;;;;;;11.50;5.33;;;10.50;65.10;;;;;;5011815;28;20238;-61
2021/10/15 04:03:23;;;;;;;10.23;5.80;;;10.60;27.80;;;;;;5011950;28;20583;-62
2021/10/15 04:05:50;;;;;;;10.70;5.20;;;10.60;21.40;;;;;;5011639;28;20207;-61
2021/10/15 04:08:16;;;;;;;9.70;5.13;;;10.60;30.40;;;;;;5018160;28;20206;-62
2021/10/15 04:10:43;;;;;;;11.00;5.17;;;10.60;43.20;;;;;;5031310;28;20316;-61
2021/10/15 04:13:11;;;;;;;11.07;5.50;;;10.60;50.20;;;;;;5031289;28;20619;-61
2021/10/15 04:15:38;;;;;;;9.33;5.37;;;10.60;53.10;;;;;;5035135;28;20221;-63
2021/10/15 04:18:04;;;;;;;11.37;5.70;;;10.60;54.50;;;;;;5041161;28;20243;-62
2021/10/15 04:20:31;;;;;;;9.90;5.57;;;10.60;43.10;;;;;;5034272;28;20288;-61
2021/10/15 04:22:58;;;;;;;13.23;5.40;;;10.60;52.30;;;;;;5035220;28;20227;-62
2021/10/15 04:25:24;;;;;;;7.60;5.50;;;10.60;98.60;;;;;;5034584;28;20206;-62
2021/10/15 04:27:51;;;;;;;11.50;6.83;;;10.50;99.90;;;;;;5035264;28;20650;-61
2021/10/15 04:30:19;;;;;;;9.37;5.40;;;10.50;99.90;;;;;;5034996;28;20230;-60
2021/10/15 04:32:46;;;;;;;10.93;5.63;;;10.60;99.90;;;;;;5035817;28;20203;-60
2021/10/15 04:35:12;;;;;;;9.37;5.37;;;10.50;99.90;;;;;;5035183;28;20256;-61
2021/10/15 04:37:39;;;;;;;13.67;5.93;;;10.50;99.90;;;;;;5035298;28;20849;-62
2021/10/15 04:40:07;;;;;;;9.03;5.83;;;10.50;99.90;;;;;;5034723;28;20226;-60
2021/10/15 04:42:37;;;;;;;14.20;5.90;;;10.50;99.90;;;;;;5035115;28;20206;-61
2021/10/15 04:45:04;;;;;;;10.17;6.53;;;10.50;99.90;;;;;;5034680;28;20230;-60
2021/10/15 04:47:32;;;;;;;9.77;6.50;;;10.50;99.90;;;;;;5034990;28;20206;-60
2021/10/15 04:49:58;;;;;;;9.07;5.80;;;10.50;99.90;;;;;;5034742;28;20599;-58
2021/10/15 04:52:25;;;;;;;9.17;6.37;;;10.50;99.90;;;;;;5034740;28;20210;-61
2021/10/15 04:54:51;;;;;;;11.07;6.27;;;10.50;99.90;;;;;;5034337;28;20287;-61
2021/10/15 04:57:18;;;;;;;16.80;6.90;;;10.50;99.90;;;;;;5035007;28;20265;-61
2021/10/15 04:59:45;;;;;;;10.63;5.63;;;10.50;99.90;;;;;;5034459;28;20715;-61
2021/10/15 05:02:11;;;;;;;13.80;6.83;;;10.50;99.90;;;;;;5034841;28;20202;-61
2021/10/15 05:04:41;;;;;;;11.03;6.33;;;10.50;99.90;;;;;;5034350;28;20234;-62
2021/10/15 05:07:08;;;;;;;8.93;6.50;;;10.50;1.00;;;;;;5034363;28;20202;-63
2021/10/15 05:09:35;;;;;;;9.30;6.10;;;10.50;1.00;;;;;;5034380;28;20226;-61
2021/10/15 05:12:04;;;;;;;11.90;6.63;;;10.50;1.00;;;;;;5034781;28;20207;-60
2021/10/15 05:14:32;;;;;;;9.90;6.43;;;10.50;1.00;;;;;;5034529;28;20210;-61
2021/10/15 05:16:59;;;;;;;8.70;6.13;;;10.50;1.00;;;;;;5033175;28;20206;-68
2021/10/15 05:19:26;;;;;;;13.07;6.70;;;10.50;1.00;;;;;;5033199;28;20202;-64
2021/10/15 05:21:54;;;;;;;13.17;6.13;;;10.50;1.00;;;;;;5033790;28;20256;-61
2021/10/15 05:24:21;;;;;;;12.93;7.00;;;10.50;1.00;;;;;;5033593;28;20226;-63
2021/10/15 05:26:47;;;;;;;9.73;6.70;;;10.50;1.00;;;;;;5034250;28;20324;-61
2021/10/15 05:29:14;;;;;;;12.30;6.10;;;10.50;1.00;;;;;;5034123;28;20205;-57
2021/10/15 05:31:41;;;;;;;12.23;6.80;;;10.50;1.00;;;;;;5034363;28;20258;-59
2021/10/15 05:34:07;;;;;;;9.97;6.13;;;10.50;1.00;;;;;;5026164;28;20248;-63
2021/10/15 05:36:34;;;;;;;11.57;6.90;;;10.50;1.00;;;;;;5033251;28;20217;-61
2021/10/15 05:39:02;;;;;;;11.20;6.47;;;10.50;1.00;;;;;;5033373;28;20276;-63
2021/10/15 05:41:29;;;;;;;15.90;6.50;;;10.50;1.00;;;;;;5033646;28;20377;-63
2021/10/15 05:43:55;;;;;;;10.30;6.33;;;10.50;1.00;;;;;;5033111;28;20691;-61
2021/10/15 05:46:22;;;;;;;11.83;5.73;;;10.50;1.00;;;;;;5033084;28;20214;-61
2021/10/15 05:48:50;;;;;;;10.77;7.00;;;10.50;1.00;;;;;;5033336;28;20218;-61
2021/10/15 05:51:16;;;;;;;12.43;6.17;;;10.40;1.00;;;;;;5033103;28;20251;-60
2021/10/15 05:53:44;;;;;;;12.57;6.43;;;10.40;1.00;;;;;;5033483;28;20226;-61
2021/10/15 05:59:14;;;;;;;13.13;6.80;;;10.40;1.00;;;;;;5088609;28;21101;-62
2021/10/15 06:01:41;;;;;;;10.53;6.53;;;10.30;99.90;;;;;;5088825;28;20208;-61
2021/10/15 06:14:58;;;;;;;9.77;6.57;;;10.30;99.90;;;;;;5087871;28;20204;-62
2021/10/15 06:17:26;;;;;;;10.07;6.23;;;10.40;99.90;;;;;;5088422;28;20224;-59
2021/10/15 06:19:53;;;;;;;10.03;6.20;;;10.40;99.90;;;;;;5088432;28;20228;-63
2021/10/15 06:22:20;;;;;;;10.87;6.80;;;10.40;99.90;;;;;;5088024;28;20669;-63
2021/10/15 06:24:49;;;;;;;12.20;6.20;;;10.50;99.90;;;;;;5087922;28;20254;-64
2021/10/15 06:27:18;;;;;;;10.20;6.70;;;10.50;99.90;;;;;;5088462;28;20324;-63
2021/10/15 06:29:45;;;;;;;9.80;6.03;;;10.50;99.90;;;;;;5088083;28;20221;-63
2021/10/15 06:32:13;;;;;;;9.27;6.63;;;10.50;90.20;;;;;;5088463;28;20296;-60
2021/10/15 06:34:40;;;;;;;13.30;6.53;;;10.60;58.10;;;;;;5087800;28;20235;-61
2021/10/15 06:37:06;;;;;;;15.57;6.17;;;10.60;1.00;;;;;;5087386;28;20208;-60
2021/10/15 06:39:33;;;;;;;7.50;5.40;;;10.60;1.00;;;;;;5088235;28;20224;-62
2021/10/15 06:42:00;;;;;;;14.17;6.60;;;10.70;1.00;;;;;;5087920;28;20296;-62
2021/10/15 06:44:27;;;;;;;9.37;5.93;;;10.70;1.00;;;;;;5087765;28;20266;-62
2021/10/15 06:46:53;;;;;;;10.13;6.47;;;10.70;1.00;;;;;;5087433;28;20208;-64
2021/10/15 06:49:22;;;;;;;14.83;6.87;;;10.80;1.00;;;;;;5087615;28;20586;-63
2021/10/15 06:51:48;;;;;;;11.03;6.53;;;10.80;1.00;;;;;;5088049;28;20213;-63
2021/10/15 06:54:15;;;;;;;8.43;5.80;;;10.80;1.00;;;;;;5087582;28;20208;-64
2021/10/15 06:56:42;;;;;;;12.97;6.80;;;10.80;1.00;;;;;;5087695;28;20227;-61
2021/10/15 06:59:09;;;;;;;13.53;6.43;;;10.80;1.00;;;;;;5087280;28;20232;-63
2021/10/15 07:01:35;;;;;;;10.30;6.07;;;10.90;1.00;;;;;;5087501;28;20619;-62
2021/10/15 07:04:02;;;;;;;11.37;6.10;;;10.90;1.00;;;;;;5087233;28;20777;-60
2021/10/15 07:06:30;;;;;;;13.13;6.70;;;10.90;1.00;;;;;;5087121;28;20239;-61
2021/10/15 07:08:58;;;;;;;12.27;6.40;;;10.90;1.00;;;;;;5083172;28;20201;-61
2021/10/15 07:11:24;;;;;;;12.03;5.97;;;10.90;1.00;;;;;;5073816;28;20262;-61
2021/10/15 07:13:51;;;;;;;12.83;6.30;;;10.90;1.00;;;;;;5073719;28;20209;-61
2021/10/15 07:16:18;;;;;;;13.60;6.43;;;10.90;1.00;;;;;;5073228;28;20211;-58
2021/10/15 07:18:44;;;;;;;9.50;6.53;;;11.00;3.50;;;;;;5073656;28;20697;-60
2021/10/15 07:21:11;;;;;;;9.23;6.13;;;11.00;1.00;;;;;;5073589;28;20286;-61
2021/10/15 07:23:40;;;;;;;10.50;6.30;;;11.00;1.00;;;;;;5073796;28;20209;-62
2021/10/15 07:26:06;;;;;;;10.13;6.00;;;11.00;26.50;;;;;;5073178;28;20635;-62
2021/10/15 07:28:33;;;;;;;10.50;5.97;;;11.10;1.00;;;;;;5073608;28;20263;-62
2021/10/15 07:31:00;;;;;;;8.57;5.87;;;11.10;1.00;;;;;;5073180;28;20275;-63
2021/10/15 07:33:27;;;;;;;9.43;6.40;;;11.10;1.00;;;;;;5073589;28;20270;-62
2021/10/15 07:35:54;;;;;;;8.87;6.00;;;11.10;1.00;;;;;;5072922;28;20697;-62
2021/10/15 07:38:20;;;;;;;9.47;6.33;;;11.10;1.00;;;;;;5073516;28;20224;-61
2021/10/15 07:40:48;;;;;;;8.03;5.80;;;11.10;1.00;;;;;;5073533;28;20225;-61
2021/10/15 07:43:15;;;;;;;9.63;6.10;;;11.20;1.00;;;;;;5073232;28;20213;-63
2021/10/15 07:45:42;;;;;;;9.67;6.13;;;11.20;1.00;;;;;;5072668;28;20266;-62
2021/10/15 07:48:08;;;;;;;13.63;7.07;;;11.20;1.00;;;;;;5073288;28;20208;-61
2021/10/15 07:50:35;;;;;;;15.13;7.20;;;11.20;1.00;;;;;;5073141;28;20230;-62
2021/10/15 07:53:02;;;;;;;11.97;7.07;;;11.20;1.00;;;;;;5073012;28;20695;-62
2021/10/15 07:55:29;;;;;;;10.23;6.70;;;11.30;56.90;;;;;;5072740;28;20263;-63
2021/10/15 07:57:57;;;;;;;10.53;5.97;;;11.30;59.60;;;;;;5072612;28;20280;-62
2021/10/15 08:00:24;;;;;;;16.07;7.17;;;11.30;97.50;;;;;;5072719;28;20718;-61
2021/10/15 08:02:53;;;;;;;10.53;6.70;;;11.40;94.10;;;;;;5072810;28;20684;-63
2021/10/15 08:05:20;;;;;;;18.27;6.90;;;11.40;1.00;;;;;;5072178;28;20707;-62
2021/10/15 08:07:46;;;;;;;13.73;6.30;;;11.40;1.00;;;;;;5072799;28;20204;-61
2021/10/15 08:10:13;;;;;;;12.07;7.07;;;11.40;1.00;;;;;;5072714;28;20259;-62
2021/10/15 08:12:41;;;;;;;13.43;6.50;;;11.40;1.00;;;;;;5072739;28;20205;-61
2021/10/15 08:15:11;;;;;;;10.73;6.30;;;11.50;99.90;;;;;;5071918;28;20211;-63
2021/10/15 08:17:38;;;;;;;10.30;5.77;;;11.50;1.00;;;;;;5072701;28;20251;-64
2021/10/15 08:20:06;;;;;;;9.97;7.17;;;11.50;99.90;;;;;;5072136;28;20578;-63
2021/10/15 08:22:33;;;;;;;11.87;6.80;;;11.60;70.60;;;;;;5072009;28;20208;-63
2021/10/15 08:24:59;;;;;;;11.67;6.50;;;11.60;1.00;;;;;;5071700;28;20200;-63
2021/10/15 08:27:26;;;;;;;10.00;6.50;;;11.60;99.90;;;;;;5072673;28;20213;-59
2021/10/15 08:29:53;;;;;;;9.90;6.13;;;11.60;99.90;;;;;;5072415;28;20217;-61
2021/10/15 08:32:21;;;;;;;12.30;7.07;;;11.60;99.90;;;;;;5072498;28;20205;-62
2021/10/15 08:34:47;;;;;;;15.20;6.73;;;11.60;99.90;;;;;;5071644;28;20213;-62
2021/10/15 08:37:14;;;;;;;12.90;7.13;;;11.60;99.90;;;;;;5072133;28;20211;-61
2021/10/15 08:39:41;;;;;;;13.07;6.73;;;11.70;99.90;;;;;;5071950;28;20276;-62
2021/10/15 08:42:08;;;;;;;13.70;6.57;;;11.70;99.90;;;;;;5072365;28;20262;-60
2021/10/15 08:44:35;;;;;;;11.33;6.93;;;11.70;99.90;;;;;;5071769;28;20205;-64
2021/10/15 08:47:03;;;;;;;12.57;7.37;;;11.80;99.90;;;;;;5072203;28;20208;-64
2021/10/15 08:49:31;;;;;;;15.23;7.37;;;11.80;99.90;;;;;;5071760;28;20722;-62
2021/10/15 08:51:57;;;;;;;14.13;8.53;;;11.80;99.90;;;;;;5071890;28;20716;-63
2021/10/15 08:54:24;;;;;;;15.00;8.57;;;11.80;99.90;;;;;;5071228;28;20209;-60
2021/10/15 08:56:51;;;;;;;15.03;8.17;;;11.80;99.90;;;;;;5071368;28;20205;-59
2021/10/15 08:59:21;;;;;;;11.93;7.73;;;11.70;1.00;;;;;;5071568;28;20703;-60
2021/10/15 09:01:49;;;;;;;13.53;8.67;;;11.70;1.00;;;;;;5071918;28;20212;-60
2021/10/15 09:04:18;;;;;;;18.67;9.03;;;11.60;99.90;;;;;;5071789;28;20209;-58
2021/10/15 09:06:48;;;;;;;11.23;8.40;;;11.60;77.00;;;;;;5070585;28;20541;-57
2021/10/15 09:09:26;;;;;;;13.83;8.93;;;11.50;1.00;;;;;;5071587;28;20199;-63
2021/10/15 09:11:53;;;;;;;16.80;9.33;;;11.40;1.00;;;;;;5071729;28;20557;-61
2021/10/15 09:14:23;;;;;;;16.60;11.00;;;11.30;99.90;;;;;;5071263;28;20259;-60
2021/10/15 09:16:59;;;;;;;18.27;11.70;;;11.20;99.90;;;;;;5071303;28;20208;-59
2021/10/15 09:19:28;;;;;;;17.17;11.40;;;11.20;1.00;;;;;;5071091;28;20231;-61
2021/10/15 09:22:18;;;;;;;18.20;12.73;;;11.20;99.90;;;;;;5071479;28;20207;-60
2021/10/15 09:24:48;;;;;;;17.90;13.10;;;11.20;99.90;;;;;;5071040;28;20351;-62
2021/10/15 09:27:19;;;;;;;18.70;13.03;;;11.20;99.90;;;;;;5071462;28;20226;-62
2021/10/15 09:29:48;;;;;;;22.80;14.30;;;11.20;99.90;;;;;;5071167;28;20614;-61
2021/10/15 09:32:15;;;;;;;24.03;14.67;;;11.10;1.00;;;;;;5071123;28;20263;-61
2021/10/15 09:34:43;;;;;;;22.87;15.03;;;11.20;1.00;;;;;;5071027;28;20624;-62
2021/10/15 09:37:17;;;;;;;19.20;14.50;;;11.30;1.00;;;;;;5071507;28;20209;-61
2021/10/15 09:39:43;;;;;;;22.80;15.80;;;11.40;1.00;;;;;;5071300;28;20225;-61
2021/10/15 09:42:18;;;;;;;24.13;16.67;;;11.40;1.00;;;;;;5071115;28;20228;-63
2021/10/15 09:44:45;;;;;;;24.07;16.23;;;11.50;1.00;;;;;;5071019;28;20287;-62
2021/10/15 09:47:17;;;;;;;25.53;17.27;;;11.50;1.00;;;;;;5071232;28;20217;-60
2021/10/15 09:49:49;;;;;;;23.40;17.70;;;11.50;1.00;;;;;;5071574;28;20221;-59
2021/10/15 09:52:26;;;;;;;24.77;18.47;;;11.50;1.00;;;;;;5071133;28;20204;-58
2021/10/15 09:54:58;;;;;;;22.97;19.03;;;11.60;1.00;;;;;;5070430;28;20247;-61
2021/10/15 09:57:32;;;;;;;23.53;18.87;;;11.60;1.00;;;;;;5071087;28;20243;-62
2021/10/15 09:59:59;;;;;;;28.00;20.93;;;11.60;1.00;;;;;;5071048;28;20236;-64
2021/10/15 10:02:27;;;;;;;23.07;18.30;;;11.70;1.00;;;;;;5071089;28;20208;-60
2021/10/15 10:04:55;;;;;;;22.73;17.70;;;11.70;1.00;;;;;;5070702;28;20258;-61
2021/10/15 10:07:24;;;;;;;19.13;15.80;;;11.80;1.00;;;;;;5070854;28;20216;-65
2021/10/15 10:09:51;;;;;;;17.37;15.40;;;11.90;1.00;;;;;;5070907;28;20656;-66
2021/10/15 10:12:19;;;;;;;19.53;15.30;;;12.00;1.00;;;;;;5071196;28;20216;-64
2021/10/15 10:14:46;;;;;;;16.77;14.10;;;12.00;1.00;;;;;;5070143;28;20218;-62
2021/10/15 10:17:18;;;;;;;15.20;12.63;;;12.00;1.00;;;;;;5070962;28;20213;-61
2021/10/15 10:19:45;;;;;;;14.63;11.50;;;12.00;99.90;;;;;;5070417;28;20282;-61
2021/10/15 10:22:12;;;;;;;12.30;8.70;;;12.00;99.90;;;;;;5071032;28;20212;-61
2021/10/15 10:24:47;;;;;;;10.90;9.10;;;12.10;1.00;;;;;;5070218;28;20668;-61
2021/10/15 10:27:26;;;;;;;10.23;8.00;;;12.00;1.50;;;;;;5070861;28;20211;-61
2021/10/15 10:29:54;;;;;;;11.70;8.73;;;12.00;1.00;;;;;;5070771;28;20229;-61
2021/10/15 10:32:23;;;;;;;8.27;6.20;;;12.00;99.90;;;;;;5070946;28;20311;-62
2021/10/15 10:34:50;;;;;;;6.07;5.20;;;11.90;2.20;;;;;;5070383;28;20307;-61
2021/10/15 10:37:18;;;;;;;4.90;3.70;;;12.00;99.90;;;;;;5070532;28;20425;-62
2021/10/15 10:42:53;;;;;;;3.40;2.30;;;11.90;43.20;;;;;;5529841;22;20229;-61
2021/10/15 10:45:21;;;;;;;3.73;2.43;;;11.70;15.00;;;;;;5012721;28;20585;-63
2021/10/15 10:48:03;;;;;;;4.47;2.47;;;11.60;64.60;;;;;;5014574;28;20207;-63
2021/10/15 10:50:30;;;;;;;3.83;2.40;;;11.70;1.00;;;;;;5014350;28;20234;-61
2021/10/15 10:53:10;;;;;;;3.13;1.67;;;11.70;99.90;;;;;;5014297;28;20226;-61
2021/10/15 10:55:43;;;;;;;2.63;1.60;;;11.80;99.90;;;;;;5014133;28;20206;-61
2021/10/15 10:58:34;;;;;;;4.17;1.73;;;11.80;1.00;;;;;;5014804;28;20711;-60
2021/10/15 11:01:44;;;;;;;3.83;1.70;;;11.90;90.80;;;;;;5014036;28;20604;-61
2021/10/15 11:04:26;;;;;;;3.73;1.70;;;12.10;1.00;;;;;;4934359;29;20245;-61
2021/10/15 11:06:57;;;;;;;4.17;1.43;;;12.20;99.90;;;;;;4933845;29;20741;-60
2021/10/15 11:09:32;;;;;;;2.73;1.70;;;12.30;99.90;;;;;;4985465;28;20638;-61
2021/10/15 11:11:58;;;;;;;5.87;2.83;;;12.40;99.90;;;;;;5013992;28;20219;-61
2021/10/15 11:14:51;;;;;;;5.20;2.13;;;12.40;99.90;;;;;;5014096;28;20646;-59
2021/10/15 11:17:27;;;;;;;2.70;1.70;;;12.30;85.90;;;;;;5003716;28;20260;-57
2021/10/15 11:20:14;;;;;;;4.80;1.57;;;12.40;99.90;;;;;;5013939;28;20256;-57
2021/10/15 11:22:43;;;;;;;6.53;1.33;;;12.60;4.70;;;;;;5014768;28;20230;-62
2021/10/15 11:25:11;;;;;;;3.73;1.40;;;12.70;99.90;;;;;;5013377;28;20207;-62
2021/10/15 11:27:37;;;;;;;3.63;1.40;;;12.70;99.90;;;;;;5014020;28;20206;-62
2021/10/15 11:30:08;;;;;;;4.20;1.93;;;12.70;1.00;;;;;;5013590;28;20644;-62
2021/10/15 11:32:40;;;;;;;3.80;1.90;;;12.70;99.90;;;;;;5013732;28;20265;-64
2021/10/15 11:35:10;;;;;;;4.13;2.60;;;12.50;99.90;;;;;;5013117;28;20219;-62
2021/10/15 11:37:45;;;;;;;6.43;2.30;;;12.50;99.90;;;;;;5014131;28;20213;-62
2021/10/15 11:40:17;;;;;;;3.23;1.97;;;12.30;99.90;;;;;;5013590;28;20226;-64
2021/10/15 11:42:44;;;;;;;4.73;2.00;;;12.30;99.90;;;;;;5013479;28;20253;-63
2021/10/15 11:45:29;;;;;;;5.07;2.30;;;12.20;99.90;;;;;;5012822;28;20207;-65
2021/10/15 11:48:03;;;;;;;3.43;2.03;;;12.20;99.90;;;;;;5013445;28;20680;-64
2021/10/15 11:50:52;;;;;;;4.77;1.83;;;12.20;99.90;;;;;;5013641;28;20238;-63
2021/10/15 11:53:22;;;;;;;5.10;1.87;;;12.30;99.90;;;;;;5007457;28;20215;-64
2021/10/15 11:55:49;;;;;;;5.73;1.90;;;12.40;62.10;;;;;;5013037;28;20668;-62
2021/10/15 11:58:28;;;;;;;3.00;1.47;;;12.40;80.70;;;;;;5013711;28;20210;-63
2021/10/15 12:01:09;;;;;;;4.87;1.73;;;12.40;30.10;;;;;;5013173;28;20280;-63
2021/10/15 12:03:40;;;;;;;5.30;1.47;;;12.50;49.10;;;;;;5013405;28;20234;-61
2021/10/15 12:06:19;;;;;;;5.27;1.80;;;12.50;90.30;;;;;;5012673;28;20264;-61
2021/10/15 12:08:47;;;;;;;3.70;1.67;;;12.60;99.90;;;;;;5013332;28;20612;-62
2021/10/15 12:11:18;;;;;;;7.60;1.50;;;12.70;94.30;;;;;;5013147;28;20597;-59
2021/10/15 12:13:45;;;;;;;4.53;1.40;;;12.70;99.90;;;;;;5013141;28;20700;-63
2021/10/15 12:16:19;;;;;;;5.70;1.40;;;12.80;18.90;;;;;;5012695;28;20203;-60
2021/10/15 12:18:59;;;;;;;5.20;1.40;;;12.80;1.00;;;;;;5013271;28;20206;-61
2021/10/15 12:21:31;;;;;;;6.53;1.37;;;12.80;1.00;;;;;;5012727;28;21055;-58
2021/10/15 12:23:58;;;;;;;5.97;1.13;;;12.70;1.00;;;;;;5012873;28;20207;-59
2021/10/15 12:26:25;;;;;;;5.00;1.67;;;12.80;1.00;;;;;;5012794;28;20207;-63
2021/10/15 12:28:52;;;;;;;5.80;1.20;;;12.70;1.00;;;;;;5012493;28;20207;-63
2021/10/15 12:31:26;;;;;;;6.37;1.57;;;12.60;1.00;;;;;;5012934;28;20603;-64
2021/10/15 12:34:06;;;;;;;7.00;1.20;;;12.60;1.00;;;;;;5012819;28;20261;-63
2021/10/15 12:36:34;;;;;;;3.80;1.13;;;12.70;1.00;;;;;;5012535;28;20210;-63
2021/10/15 12:39:20;;;;;;;5.70;1.17;;;12.80;1.00;;;;;;5012663;28;20257;-66
2021/10/15 12:41:48;;;;;;;8.20;1.30;;;12.90;1.00;;;;;;5012786;28;20207;-64
2021/10/15 12:44:28;;;;;;;6.97;1.40;;;13.00;1.00;;;;;;5012443;28;20273;-60
2021/10/15 12:46:57;;;;;;;6.53;1.67;;;12.90;1.00;;;;;;5012547;28;20259;-61
2021/10/15 12:49:26;;;;;;;3.33;0.93;;;12.90;1.00;;;;;;5012213;28;20230;-61
2021/10/15 12:51:52;;;;;;;4.00;1.20;;;13.00;1.00;;;;;;5012476;28;20227;-61
2021/10/15 12:54:42;;;;;;;4.53;1.30;;;13.10;1.00;;;;;;5012319;28;20211;-57
2021/10/15 12:57:14;;;;;;;5.60;2.17;;;13.20;1.00;;;;;;5012206;28;20683;-63
2021/10/15 12:59:41;;;;;;;4.37;1.23;;;13.40;1.00;;;;;;5012434;28;20219;-63
2021/10/15 13:02:09;;;;;;;11.33;1.37;;;13.50;1.00;;;;;;5012050;28;20278;-60
2021/10/15 13:04:38;;;;;;;7.57;1.60;;;13.40;1.00;;;;;;5011822;28;20215;-59
2021/10/15 13:07:05;;;;;;;3.03;1.43;;;13.40;1.00;;;;;;5011789;28;20230;-61
2021/10/15 13:09:33;;;;;;;4.23;1.20;;;13.30;1.00;;;;;;5012221;28;20230;-63
2021/10/15 13:12:00;;;;;;;6.30;1.53;;;13.20;1.00;;;;;;5012432;28;20206;-60